Rome Urbe Air Force Base, Italy

12:43 AM CEST on August 28, 2015 (GMT +0200)
IRMROMA12 | | Change Station
CLOSE
Current Station
Personal Weather Station
Location: Roma / Trieste-Salario, RM
Elevation: 148 ft
Nearby Weather Stations

Elev 148 ft 41.94 °N, 12.51 °E | Updated 12 minutes ago

Clear
Clear
72.5 °F
Feels Like 72 °F
N
0.6
Wind Variable Wind from North
Gusts 2.2 mph

Today
High -- | Low -- °F
--% Chance of Precip.
Yesterday
High -- | Low -- °F
Precip. -- in
6:30 AM 7:50 PM
Waxing Gibbous, 95% visible
Pressure 30.06 in
Visibility -9999.0 miles
Clouds
Heat Index 72 °F
Dew Point 67 °F
Humidity 84%
Rainfall 0.00 in
Snow Depth Not available.
UV Not available.
Pollen Not available.
Air Quality Not available.
Flu Activity Not available.
METAR LIRA 272220Z VRB02KT CAVOK 21/17 Q1018
Pressure 30.06 in
Visibility -9999.0 miles
Clouds
Heat Index 72 °F
Dew Point 67 °F
Humidity 84%
Rainfall 0.00 in
Snow Depth Not available.
UV Not available.
Pollen Not available.
Air Quality Not available.
Flu Activity Not available.
METAR LIRA 272220Z VRB02KT CAVOK 21/17 Q1018

10-Day Weather Forecast

×

Almanac

Astronomy

Aug. 28, 2015 Rise Set
Actual Time
Civil Twilight
Nautical Twilight
Astronomical Twilight
Moon
Length of Visible Light
Length of Day
Tomorrow will be .
, % of the Moon is Illuminated

Today's Extremes

Country Highs Country Lows

Community

WunderPhotos

Upload Photos

1,850,252 photos uploaded!

WunderBlogs® & News

Nearby

Air Quality

  Air Quality AQ Index Pollutant
Not available.

Snow Depth

Station Depth Elevation

Earthquake Activity

City Distance Mag. Time & Date
Minimum magnitude displayed is 2.5.

Coastal Water Temperatures

Place Temperature

Stations

Nearby Weather Stations

Station Location Temp. Windchill Dew Point Humidity Wind Precip. Elev Updated Type